createdAt,value
2023-02-15T00:01:51.248Z,11.10
2023-02-15T00:04:20.935Z,8.90
2023-02-15T00:06:48.177Z,10.05
2023-02-15T00:09:15.218Z,9.45
2023-02-15T00:11:44.519Z,9.32
2023-02-15T00:14:13.057Z,8.43
2023-02-15T00:16:41.309Z,8.82
2023-02-15T00:19:09.150Z,8.50
2023-02-15T00:21:36.910Z,8.77
2023-02-15T00:24:05.621Z,9.52
2023-02-15T00:26:33.054Z,9.60
2023-02-15T00:29:00.345Z,8.90
2023-02-15T00:31:31.863Z,9.27
2023-02-15T00:34:03.664Z,8.52
2023-02-15T00:36:30.293Z,10.57
2023-02-15T00:38:57.134Z,10.25
2023-02-15T00:41:24.018Z,9.20
2023-02-15T00:43:50.642Z,8.80
2023-02-15T00:46:17.497Z,9.25
2023-02-15T00:48:45.018Z,10.32
2023-02-15T00:51:11.636Z,9.10
2023-02-15T00:53:38.286Z,8.27
2023-02-15T00:56:05.105Z,9.80
2023-02-15T00:58:31.957Z,8.27
2023-02-15T01:01:08.123Z,9.73
2023-02-15T01:03:35.501Z,8.82
2023-02-15T01:06:03.490Z,10.07
2023-02-15T01:08:30.849Z,9.90
2023-02-15T01:10:57.679Z,9.52
2023-02-15T01:13:24.509Z,9.60
2023-02-15T01:15:55.708Z,9.40
2023-02-15T01:18:23.223Z,8.75
2023-02-15T01:20:49.943Z,10.05
2023-02-15T01:23:16.741Z,9.25
2023-02-15T01:25:46.006Z,11.80
2023-02-15T01:28:12.793Z,10.82
2023-02-15T01:30:40.073Z,10.98
2023-02-15T01:33:06.624Z,8.23
2023-02-15T01:35:33.420Z,9.93
2023-02-15T01:38:00.097Z,10.38
2023-02-15T01:40:26.928Z,10.45
2023-02-15T01:42:54.896Z,8.02
2023-02-15T01:45:27.174Z,11.27
2023-02-15T01:48:02.665Z,11.90
2023-02-15T01:50:42.001Z,9.18
2023-02-15T01:53:20.433Z,10.52
2023-02-15T01:56:04.795Z,12.00
2023-02-15T01:58:33.089Z,10.98
2023-02-15T02:01:01.420Z,9.30
2023-02-15T02:03:41.482Z,8.02
2023-02-15T02:06:08.384Z,9.95
2023-02-15T02:08:35.190Z,10.35
2023-02-15T02:11:01.910Z,9.23
2023-02-15T02:13:28.737Z,9.35
2023-02-15T02:16:09.052Z,9.27
2023-02-15T02:18:59.093Z,8.13
2023-02-15T02:22:11.472Z,9.90
2023-02-15T02:24:46.195Z,8.68
2023-02-15T02:27:34.757Z,9.10
2023-02-15T02:30:20.128Z,8.05
2023-02-15T02:32:52.460Z,8.88
2023-02-15T02:35:26.333Z,7.63
2023-02-15T02:38:08.129Z,9.50
2023-02-15T02:40:53.645Z,9.18
2023-02-15T02:43:26.346Z,9.45
2023-02-15T02:46:11.017Z,8.25
2023-02-15T02:48:39.337Z,8.55
2023-02-15T02:51:05.910Z,8.68
2023-02-15T02:53:34.710Z,8.10
2023-02-15T02:56:13.715Z,9.70
2023-02-15T02:58:49.673Z,8.73
2023-02-15T03:01:28.458Z,7.50
2023-02-15T03:04:02.242Z,8.60
2023-02-15T03:06:44.429Z,8.15
2023-02-15T03:09:16.367Z,7.45
2023-02-15T03:11:45.314Z,6.93
2023-02-15T03:14:15.221Z,9.82
2023-02-15T03:16:44.517Z,8.55
2023-02-15T03:19:23.449Z,9.20
2023-02-15T03:22:10.279Z,8.45
2023-02-15T03:24:43.354Z,8.45
2023-02-15T03:27:18.947Z,8.25
2023-02-15T03:29:50.942Z,7.47
2023-02-15T03:32:18.639Z,7.82
2023-02-15T03:34:46.108Z,8.95
2023-02-15T03:37:22.727Z,8.93
2023-02-15T03:39:57.694Z,10.15
2023-02-15T03:42:33.316Z,8.38
2023-02-15T03:45:05.706Z,9.40
2023-02-15T03:47:36.244Z,7.80
2023-02-15T03:50:28.143Z,8.18
2023-02-15T03:52:58.326Z,7.13
2023-02-15T03:55:25.228Z,8.75
2023-02-15T03:58:10.941Z,7.68
2023-02-15T04:01:02.954Z,9.90
2023-02-15T04:03:46.279Z,8.25
2023-02-15T04:06:12.991Z,8.25
2023-02-15T04:08:58.781Z,8.43
2023-02-15T04:11:25.407Z,7.82
2023-02-15T04:13:57.232Z,8.68
2023-02-15T04:16:25.352Z,8.25
2023-02-15T04:19:10.765Z,8.25
2023-02-15T04:21:55.964Z,7.03
2023-02-15T04:24:41.346Z,6.55
2023-02-15T04:27:08.000Z,7.05
2023-02-15T04:29:34.555Z,7.15
2023-02-15T04:32:02.778Z,7.93
2023-02-15T04:34:29.398Z,7.40
2023-02-15T04:36:56.035Z,7.15
2023-02-15T04:39:22.874Z,8.20
2023-02-15T04:41:49.477Z,8.85
2023-02-15T04:44:16.073Z,7.18
2023-02-15T04:46:42.779Z,9.13
2023-02-15T04:49:10.237Z,7.72
2023-02-15T04:51:37.020Z,7.25
2023-02-15T04:54:03.660Z,7.47
2023-02-15T04:56:30.978Z,8.73
2023-02-15T04:58:57.889Z,7.25
2023-02-15T05:01:24.537Z,7.72
2023-02-15T05:03:51.187Z,7.97
2023-02-15T05:06:18.040Z,8.68
2023-02-15T05:08:44.576Z,8.13
2023-02-15T05:11:11.390Z,8.30
2023-02-15T05:13:38.034Z,8.45
2023-02-15T05:16:04.866Z,6.82
2023-02-15T05:18:31.493Z,8.38
2023-02-15T05:20:58.339Z,9.00
2023-02-15T05:23:25.924Z,7.93
2023-02-15T05:26:11.627Z,7.82
2023-02-15T05:31:10.746Z,8.20
2023-02-15T05:33:38.543Z,9.30
2023-02-15T05:36:06.493Z,9.02
2023-02-15T05:38:33.863Z,8.35
2023-02-15T05:41:00.426Z,8.73
2023-02-15T05:43:27.529Z,7.65
2023-02-15T05:45:55.561Z,8.20
2023-02-15T05:48:23.993Z,8.63
2023-02-15T05:51:14.138Z,9.10
2023-02-15T05:53:40.944Z,7.35
2023-02-15T05:56:09.785Z,8.52
2023-02-15T05:58:39.466Z,6.88
2023-02-15T06:01:15.667Z,8.25
2023-02-15T06:03:42.398Z,7.65
2023-02-15T06:06:09.398Z,9.63
2023-02-15T06:08:37.776Z,10.02
2023-02-15T06:11:05.386Z,10.60
2023-02-15T06:13:32.710Z,14.32
2023-02-15T06:15:59.412Z,11.57
2023-02-15T06:18:26.353Z,11.88
2023-02-15T06:20:53.111Z,9.75
2023-02-15T06:23:19.818Z,9.32
2023-02-15T06:25:47.341Z,10.55
2023-02-15T06:28:14.793Z,9.93
2023-02-15T06:30:41.480Z,9.15
2023-02-15T06:33:08.261Z,10.05
2023-02-15T06:35:35.258Z,9.68
2023-02-15T06:38:02.193Z,10.27
2023-02-15T06:40:28.877Z,8.50
2023-02-15T06:42:55.493Z,8.02
2023-02-15T06:45:22.093Z,10.07
2023-02-15T06:47:48.799Z,8.65
2023-02-15T06:50:15.301Z,9.38
2023-02-15T06:52:42.095Z,9.68
2023-02-15T06:55:08.814Z,9.75
2023-02-15T06:57:36.220Z,11.75
2023-02-15T07:00:05.700Z,8.88
2023-02-15T07:02:32.897Z,11.32
2023-02-15T07:04:59.529Z,9.95
2023-02-15T07:07:26.227Z,10.30
2023-02-15T07:09:52.883Z,10.57
2023-02-15T07:12:38.154Z,10.07
2023-02-15T07:15:07.651Z,9.63
2023-02-15T07:17:36.304Z,9.35
2023-02-15T07:20:09.621Z,10.95
2023-02-15T07:22:37.653Z,9.82
2023-02-15T07:25:05.987Z,10.65
2023-02-15T07:27:33.090Z,10.52
2023-02-15T07:30:00.699Z,9.60
2023-02-15T07:32:33.725Z,10.77
2023-02-15T07:35:01.044Z,10.57
2023-02-15T07:37:28.821Z,9.68
2023-02-15T07:39:55.903Z,9.48
2023-02-15T07:42:22.882Z,10.25
2023-02-15T07:44:49.763Z,9.10
2023-02-15T07:47:16.465Z,11.23
2023-02-15T07:49:43.220Z,8.63
2023-02-15T07:52:09.946Z,10.50
2023-02-15T07:54:36.603Z,10.27
2023-02-15T07:57:03.542Z,10.57
2023-02-15T07:59:30.186Z,9.43
2023-02-15T08:01:57.604Z,11.07
2023-02-15T08:04:25.058Z,11.32
2023-02-15T08:06:54.454Z,11.75
2023-02-15T08:09:21.411Z,11.85
2023-02-15T08:11:49.238Z,9.98
2023-02-15T08:14:23.191Z,9.35
2023-02-15T08:16:56.954Z,10.75
2023-02-15T08:19:33.192Z,11.18
2023-02-15T08:22:05.613Z,9.73
2023-02-15T08:24:34.734Z,9.18
2023-02-15T08:27:06.062Z,11.75
2023-02-15T08:29:34.716Z,9.85
2023-02-15T08:32:05.422Z,10.02
2023-02-15T08:34:35.885Z,9.70
2023-02-15T08:37:02.559Z,10.65
2023-02-15T08:39:29.670Z,11.35
2023-02-15T08:41:56.993Z,11.13
2023-02-15T08:44:23.919Z,11.38
2023-02-15T08:46:53.050Z,11.73
2023-02-15T08:49:21.800Z,11.65
2023-02-15T08:51:50.016Z,11.70
2023-02-15T08:54:19.765Z,12.50
2023-02-15T08:56:47.326Z,11.30
2023-02-15T08:59:17.576Z,11.27
2023-02-15T09:01:45.359Z,11.65
2023-02-15T09:04:13.234Z,11.20
2023-02-15T09:06:41.365Z,10.10
2023-02-15T09:09:09.051Z,10.77
2023-02-15T09:11:38.638Z,12.10
2023-02-15T09:14:09.986Z,9.82
2023-02-15T09:16:38.883Z,11.63
2023-02-15T09:19:07.290Z,11.18
2023-02-15T09:21:36.927Z,10.85
2023-02-15T09:24:07.541Z,12.32
2023-02-15T09:26:38.377Z,10.55
2023-02-15T09:29:05.301Z,10.90
2023-02-15T09:31:34.997Z,10.38
2023-02-15T09:34:02.479Z,9.77
2023-02-15T09:36:28.989Z,10.73
2023-02-15T09:38:57.480Z,8.93
2023-02-15T09:41:42.562Z,11.05
2023-02-15T09:44:28.042Z,9.87
2023-02-15T09:47:06.800Z,10.50
2023-02-15T09:49:57.814Z,9.75
2023-02-15T09:52:34.512Z,9.20
2023-02-15T09:55:29.280Z,9.93
2023-02-15T09:58:03.500Z,10.18
2023-02-15T10:00:44.108Z,9.35
2023-02-15T10:03:17.101Z,10.93
2023-02-15T10:05:53.994Z,11.25
2023-02-15T10:08:34.775Z,10.85
2023-02-15T10:11:32.692Z,10.50
2023-02-15T10:14:25.136Z,11.55
2023-02-15T10:16:57.934Z,9.88
2023-02-15T10:19:34.643Z,9.88
2023-02-15T10:22:07.209Z,9.90
2023-02-15T10:25:08.030Z,10.48
2023-02-15T10:27:40.086Z,10.10
2023-02-15T10:30:13.903Z,10.13
2023-02-15T10:33:01.017Z,10.57
2023-02-15T10:35:53.711Z,10.13
2023-02-15T10:38:56.688Z,10.10
2023-02-15T10:41:42.466Z,10.13
2023-02-15T10:44:39.605Z,12.35
2023-02-15T10:47:36.848Z,11.30
2023-02-15T10:50:11.689Z,11.43
2023-02-15T10:53:03.319Z,13.50
2023-02-15T10:55:45.152Z,11.77
2023-02-15T10:58:19.721Z,10.70
2023-02-15T11:01:00.467Z,10.50
2023-02-15T11:03:37.659Z,9.38
2023-02-15T11:06:14.772Z,10.98
2023-02-15T11:08:46.203Z,9.98
2023-02-15T11:11:34.471Z,9.88
2023-02-15T11:14:09.806Z,10.50
2023-02-15T11:16:45.287Z,9.23
2023-02-15T11:22:01.442Z,10.82
2023-02-15T11:24:30.976Z,10.07
2023-02-15T11:27:20.666Z,10.30
2023-02-15T11:29:47.324Z,10.73
2023-02-15T11:32:30.052Z,11.23
2023-02-15T11:35:11.953Z,10.30
2023-02-15T11:37:57.440Z,10.15
2023-02-15T11:43:23.706Z,11.55
2023-02-15T11:45:50.307Z,10.95
2023-02-15T11:48:18.636Z,10.57
2023-02-15T11:50:46.008Z,10.07
2023-02-15T11:53:22.489Z,9.20
2023-02-15T11:55:51.931Z,9.68
2023-02-15T11:58:36.645Z,10.13
2023-02-15T12:01:13.676Z,9.13
2023-02-15T12:03:46.323Z,9.35
2023-02-15T12:06:25.333Z,9.55
2023-02-15T12:09:02.006Z,10.40
2023-02-15T12:11:36.227Z,9.30
2023-02-15T12:14:11.060Z,8.65
2023-02-15T12:16:54.283Z,8.73
2023-02-15T12:19:41.473Z,9.57
2023-02-15T12:22:22.465Z,8.35
2023-02-15T12:24:50.374Z,9.00
2023-02-15T12:27:25.369Z,7.43
2023-02-15T12:29:59.953Z,8.18
2023-02-15T12:32:48.482Z,8.48
2023-02-15T12:35:22.678Z,7.35
2023-02-15T12:38:15.674Z,8.65
2023-02-15T12:40:48.602Z,7.32
2023-02-15T12:43:37.191Z,7.75
2023-02-15T12:46:24.078Z,6.57
2023-02-15T12:49:10.220Z,5.85
2023-02-15T12:51:51.673Z,6.70
2023-02-15T12:54:41.006Z,6.53
2023-02-15T12:57:29.772Z,5.18
2023-02-15T13:00:19.940Z,6.13
2023-02-15T13:02:52.332Z,6.13
2023-02-15T13:05:45.307Z,6.10
2023-02-15T13:08:18.313Z,5.78
2023-02-15T13:10:55.736Z,6.25
2023-02-15T13:13:27.289Z,6.40
2023-02-15T13:15:59.729Z,6.22
2023-02-15T13:18:39.666Z,6.47
2023-02-15T13:21:15.621Z,5.70
2023-02-15T13:23:49.635Z,6.30
2023-02-15T13:26:21.192Z,6.82
2023-02-15T13:28:54.979Z,6.25
2023-02-15T13:31:25.995Z,6.63
2023-02-15T13:33:57.746Z,6.25
2023-02-15T13:36:35.739Z,7.13
2023-02-15T13:39:23.762Z,6.55
2023-02-15T13:42:06.814Z,7.13
2023-02-15T13:45:02.939Z,7.70
2023-02-15T13:47:38.861Z,6.78
2023-02-15T13:50:25.014Z,7.80
2023-02-15T13:53:20.634Z,6.15
2023-02-15T13:56:02.428Z,6.82
2023-02-15T13:58:41.701Z,8.32
2023-02-15T14:01:45.838Z,7.22
2023-02-15T14:04:39.164Z,6.93
2023-02-15T14:07:34.128Z,8.18
2023-02-15T14:10:34.609Z,7.13
2023-02-15T14:13:27.814Z,6.07
2023-02-15T14:16:04.149Z,7.82
2023-02-15T14:18:43.335Z,6.65
2023-02-15T14:21:29.303Z,6.55
2023-02-15T14:24:17.300Z,7.72
2023-02-15T14:26:54.057Z,6.68
2023-02-15T14:29:47.605Z,6.80
2023-02-15T14:32:27.290Z,5.78
2023-02-15T14:35:00.232Z,8.00
2023-02-15T14:37:46.827Z,7.60
2023-02-15T14:41:03.615Z,6.97
2023-02-15T14:44:16.365Z,6.45
2023-02-15T14:46:57.001Z,7.00
2023-02-15T14:49:27.732Z,7.18
2023-02-15T14:51:57.638Z,7.57
2023-02-15T14:54:24.161Z,7.15
2023-02-15T14:57:02.929Z,7.40
2023-02-15T14:59:43.236Z,6.95
2023-02-15T15:02:09.819Z,8.15
2023-02-15T15:04:40.383Z,7.53
2023-02-15T15:07:12.845Z,7.55
2023-02-15T15:09:42.006Z,6.55
2023-02-15T15:12:23.135Z,6.75
2023-02-15T15:14:51.461Z,7.05
2023-02-15T15:17:33.435Z,7.22
2023-02-15T15:20:02.423Z,7.50
2023-02-15T15:22:30.871Z,7.32
2023-02-15T15:24:58.421Z,7.43
2023-02-15T15:27:49.551Z,6.65
2023-02-15T15:30:19.105Z,6.78
2023-02-15T15:33:07.469Z,6.60
2023-02-15T15:35:37.992Z,6.47
2023-02-15T15:38:32.042Z,7.10
2023-02-15T15:41:13.586Z,7.45
2023-02-15T15:43:58.597Z,6.25
2023-02-15T15:46:48.096Z,7.25
2023-02-15T15:49:21.323Z,7.88
2023-02-15T15:51:49.425Z,7.25
2023-02-15T15:54:22.266Z,7.00
2023-02-15T15:56:58.881Z,6.50
2023-02-15T15:59:28.976Z,7.57
2023-02-15T16:01:56.193Z,7.50
2023-02-15T16:04:30.783Z,6.70
2023-02-15T16:07:02.910Z,6.60
2023-02-15T16:09:29.547Z,7.97
2023-02-15T16:12:02.600Z,7.85
2023-02-15T16:14:41.417Z,7.72
2023-02-15T16:17:15.002Z,8.80
2023-02-15T16:19:43.743Z,9.18
2023-02-15T16:22:18.939Z,7.53
2023-02-15T16:24:57.685Z,8.20
2023-02-15T16:27:42.536Z,7.10
2023-02-15T16:30:23.955Z,7.45
2023-02-15T16:32:54.455Z,6.45
2023-02-15T16:35:22.958Z,7.22
2023-02-15T16:37:49.581Z,6.18
2023-02-15T16:40:25.836Z,7.65
2023-02-15T16:42:55.873Z,8.50
2023-02-15T16:45:26.718Z,8.30
2023-02-15T16:47:58.265Z,8.30
2023-02-15T16:50:50.376Z,8.43
2023-02-15T16:53:28.891Z,7.78
2023-02-15T16:55:59.422Z,7.80
2023-02-15T16:58:39.011Z,8.55
2023-02-15T17:01:10.106Z,8.40
2023-02-15T17:03:37.384Z,9.07
2023-02-15T17:06:18.926Z,8.90
2023-02-15T17:08:45.857Z,9.23
2023-02-15T17:11:36.792Z,11.63
2023-02-15T17:14:03.601Z,11.93
2023-02-15T17:16:42.372Z,11.15
2023-02-15T17:19:16.591Z,12.15
2023-02-15T17:21:49.676Z,11.25
2023-02-15T17:24:47.259Z,9.70
2023-02-15T17:27:20.532Z,10.00
2023-02-15T17:29:52.762Z,9.45
2023-02-15T17:32:23.964Z,7.95
2023-02-15T17:35:26.033Z,8.30
2023-02-15T17:38:21.568Z,9.52
2023-02-15T17:40:48.300Z,8.47
2023-02-15T17:43:14.860Z,7.50
2023-02-15T17:45:47.978Z,8.52
2023-02-15T17:48:22.572Z,7.30
2023-02-15T17:50:49.544Z,7.23
2023-02-15T17:53:18.906Z,8.40
2023-02-15T17:55:46.022Z,7.63
2023-02-15T17:58:15.066Z,8.32
2023-02-15T18:01:06.263Z,8.57
2023-02-15T18:03:59.730Z,7.82
2023-02-15T18:06:45.689Z,7.18
2023-02-15T18:14:26.561Z,7.13
2023-02-15T18:16:54.730Z,6.93
2023-02-15T18:19:24.336Z,6.43
2023-02-15T18:21:57.548Z,7.72
2023-02-15T18:24:26.483Z,7.63
2023-02-15T18:26:54.691Z,7.40
2023-02-15T18:29:22.167Z,8.20
2023-02-15T18:31:53.991Z,6.53
2023-02-15T18:34:30.652Z,7.05
2023-02-15T18:36:59.203Z,6.93
2023-02-15T18:39:28.096Z,9.13
2023-02-15T18:41:54.780Z,7.18
2023-02-15T18:44:21.341Z,6.68
2023-02-15T18:46:47.862Z,6.72
2023-02-15T18:49:14.555Z,6.80
2023-02-15T18:51:41.345Z,6.82
2023-02-15T18:54:17.664Z,7.75
2023-02-15T18:56:44.927Z,6.68
2023-02-15T18:59:18.488Z,7.40
2023-02-15T19:01:45.613Z,6.32
2023-02-15T19:04:12.462Z,8.35
2023-02-15T19:06:44.391Z,7.93
2023-02-15T19:09:17.786Z,6.30
2023-02-15T19:11:50.210Z,7.80
2023-02-15T19:14:32.404Z,8.02
2023-02-15T19:17:00.421Z,7.28
2023-02-15T19:19:27.813Z,7.47
2023-02-15T19:21:55.582Z,7.40
2023-02-15T19:24:29.824Z,6.30
2023-02-15T19:26:56.546Z,7.55
2023-02-15T19:29:29.399Z,7.55
2023-02-15T19:31:57.829Z,7.65
2023-02-15T19:34:24.794Z,7.65
2023-02-15T19:36:53.563Z,8.57
2023-02-15T19:39:25.762Z,7.93
2023-02-15T19:41:52.798Z,8.35
2023-02-15T19:44:19.716Z,7.45
2023-02-15T19:46:46.709Z,7.55
2023-02-15T19:49:13.341Z,7.15
2023-02-15T19:51:40.705Z,8.07
2023-02-15T19:54:28.281Z,8.40
2023-02-15T19:56:55.418Z,7.40
2023-02-15T19:59:25.870Z,8.70
2023-02-15T20:01:52.690Z,8.43
2023-02-15T20:04:19.680Z,8.73
2023-02-15T20:06:48.380Z,7.70
2023-02-15T20:09:33.815Z,8.02
2023-02-15T20:12:00.988Z,7.15
2023-02-15T20:14:27.700Z,7.72
2023-02-15T20:16:54.618Z,7.68
2023-02-15T20:19:21.286Z,8.15
2023-02-15T20:21:54.504Z,7.47
2023-02-15T20:24:23.334Z,8.40
2023-02-15T20:26:49.874Z,8.82
2023-02-15T20:29:18.448Z,8.30
2023-02-15T20:31:46.141Z,8.10
2023-02-15T20:34:12.882Z,8.45
2023-02-15T20:36:40.445Z,9.25
2023-02-15T20:39:17.249Z,7.97
2023-02-15T20:41:49.882Z,8.23
2023-02-15T20:44:29.088Z,8.90
2023-02-15T20:46:57.729Z,7.95
2023-02-15T20:49:25.995Z,8.75
2023-02-15T20:51:56.712Z,8.15
2023-02-15T20:54:26.264Z,9.10
2023-02-15T20:56:54.177Z,8.30
2023-02-15T20:59:23.698Z,9.70
2023-02-15T21:01:51.777Z,8.30
2023-02-15T21:04:21.664Z,8.45
2023-02-15T21:06:48.358Z,9.48
2023-02-15T21:09:16.319Z,9.63
2023-02-15T21:11:44.501Z,8.05
2023-02-15T21:14:23.158Z,9.52
2023-02-15T21:16:50.862Z,9.77
2023-02-15T21:19:20.907Z,9.93
2023-02-15T21:21:49.966Z,8.43
2023-02-15T21:24:23.620Z,8.80
2023-02-15T21:26:51.383Z,9.05
2023-02-15T21:29:28.661Z,8.93
2023-02-15T21:31:58.168Z,8.95
2023-02-15T21:34:24.805Z,8.90
2023-02-15T21:36:51.648Z,10.32
2023-02-15T21:39:26.416Z,9.82
2023-02-15T21:42:13.783Z,9.25
2023-02-15T21:44:59.126Z,9.27
2023-02-15T21:47:46.984Z,9.70
2023-02-15T21:50:34.817Z,10.18
2023-02-15T21:53:02.569Z,8.88
2023-02-15T21:55:30.655Z,10.23
2023-02-15T21:57:57.350Z,9.65
2023-02-15T22:00:25.618Z,8.32
2023-02-15T22:02:55.406Z,9.82
2023-02-15T22:05:26.631Z,9.23
2023-02-15T22:07:53.502Z,10.52
2023-02-15T22:10:22.633Z,9.32
2023-02-15T22:12:50.910Z,9.20
2023-02-15T22:15:23.961Z,9.45
2023-02-15T22:17:52.783Z,9.50
2023-02-15T22:20:22.088Z,9.18
2023-02-15T22:22:50.148Z,10.27
2023-02-15T22:25:19.730Z,9.63
2023-02-15T22:27:48.148Z,8.75
2023-02-15T22:30:19.639Z,8.45
2023-02-15T22:32:46.591Z,9.50
2023-02-15T22:35:20.089Z,9.27
2023-02-15T22:37:46.739Z,9.50
2023-02-15T22:40:15.882Z,10.40
2023-02-15T22:42:52.552Z,8.77
2023-02-15T22:45:24.653Z,9.23
2023-02-15T22:47:53.308Z,8.50
2023-02-15T22:50:27.670Z,9.15
2023-02-15T22:52:54.888Z,9.57
2023-02-15T22:55:24.530Z,10.05
2023-02-15T22:57:54.473Z,9.40
2023-02-15T23:00:25.143Z,10.57
2023-02-15T23:02:55.692Z,10.15
2023-02-15T23:05:31.457Z,9.35
2023-02-15T23:07:58.416Z,9.73
2023-02-15T23:10:26.468Z,9.90
2023-02-15T23:13:17.922Z,9.68
2023-02-15T23:15:51.103Z,9.18
2023-02-15T23:18:37.393Z,9.48
2023-02-15T23:21:16.216Z,9.60
2023-02-15T23:23:45.386Z,8.55
2023-02-15T23:26:21.264Z,9.57
2023-02-15T23:28:49.201Z,9.30
2023-02-15T23:31:23.799Z,10.05
2023-02-15T23:33:52.630Z,8.93
2023-02-15T23:36:28.239Z,10.05
2023-02-15T23:38:57.146Z,9.68
2023-02-15T23:41:30.065Z,9.85
2023-02-15T23:44:00.317Z,9.27
2023-02-15T23:46:46.288Z,10.50
2023-02-15T23:49:22.811Z,9.25
2023-02-15T23:51:52.229Z,10.45
2023-02-15T23:54:21.293Z,9.30
2023-02-15T23:56:54.116Z,8.70
2023-02-15T23:59:24.659Z,9.63
